sensor_id;sensor_type;location;lat;lon;timestamp;temperature;humidity
12060;DHT22;6091;51.432;6.880;2023-03-18T00:01:05;24.20;31.90
12060;DHT22;6091;51.432;6.880;2023-03-18T00:03:36;24.20;31.90
12060;DHT22;6091;51.432;6.880;2023-03-18T00:06:16;24.10;31.80
12060;DHT22;6091;51.432;6.880;2023-03-18T00:08:46;24.20;32.00
12060;DHT22;6091;51.432;6.880;2023-03-18T00:11:16;24.10;31.80
12060;DHT22;6091;51.432;6.880;2023-03-18T00:13:44;24.10;31.80
12060;DHT22;6091;51.432;6.880;2023-03-18T00:16:15;24.10;31.80
12060;DHT22;6091;51.432;6.880;2023-03-18T00:18:46;24.10;31.90
12060;DHT22;6091;51.432;6.880;2023-03-18T00:21:14;24.10;32.10
12060;DHT22;6091;51.432;6.880;2023-03-18T00:23:43;24.10;31.90
12060;DHT22;6091;51.432;6.880;2023-03-18T00:26:10;24.10;31.80
12060;DHT22;6091;51.432;6.880;2023-03-18T00:28:40;24.10;31.90
12060;DHT22;6091;51.432;6.880;2023-03-18T00:31:09;24.00;31.90
12060;DHT22;6091;51.432;6.880;2023-03-18T00:33:40;24.10;31.90
12060;DHT22;6091;51.432;6.880;2023-03-18T00:36:12;24.00;31.80
12060;DHT22;6091;51.432;6.880;2023-03-18T00:38:44;24.00;31.90
12060;DHT22;6091;51.432;6.880;2023-03-18T00:41:16;24.00;32.20
12060;DHT22;6091;51.432;6.880;2023-03-18T00:43:46;24.10;31.90
12060;DHT22;6091;51.432;6.880;2023-03-18T00:46:30;24.00;32.00
12060;DHT22;6091;51.432;6.880;2023-03-18T00:49:03;24.00;32.00
12060;DHT22;6091;51.432;6.880;2023-03-18T00:51:35;24.00;31.90
12060;DHT22;6091;51.432;6.880;2023-03-18T00:54:06;24.00;32.00
12060;DHT22;6091;51.432;6.880;2023-03-18T00:56:43;24.00;32.00
12060;DHT22;6091;51.432;6.880;2023-03-18T00:59:12;24.00;32.00
12060;DHT22;6091;51.432;6.880;2023-03-18T01:01:39;24.00;32.00
12060;DHT22;6091;51.432;6.880;2023-03-18T01:04:07;24.00;32.00
12060;DHT22;6091;51.432;6.880;2023-03-18T01:06:36;24.00;32.00
12060;DHT22;6091;51.432;6.880;2023-03-18T01:09:06;23.90;31.90
12060;DHT22;6091;51.432;6.880;2023-03-18T01:11:37;23.90;32.00
12060;DHT22;6091;51.432;6.880;2023-03-18T01:14:05;23.90;32.00
12060;DHT22;6091;51.432;6.880;2023-03-18T01:16:33;23.90;32.00
12060;DHT22;6091;51.432;6.880;2023-03-18T01:19:00;23.90;32.30
12060;DHT22;6091;51.432;6.880;2023-03-18T01:21:28;23.80;31.90
12060;DHT22;6091;51.432;6.880;2023-03-18T01:23:55;23.90;32.00
12060;DHT22;6091;51.432;6.880;2023-03-18T01:26:23;23.90;32.80
12060;DHT22;6091;51.432;6.880;2023-03-18T01:28:52;23.90;32.00
12060;DHT22;6091;51.432;6.880;2023-03-18T01:31:22;23.90;32.10
12060;DHT22;6091;51.432;6.880;2023-03-18T01:33:51;23.90;32.10
12060;DHT22;6091;51.432;6.880;2023-03-18T01:36:18;23.80;32.00
12060;DHT22;6091;51.432;6.880;2023-03-18T01:38:48;23.80;32.00
12060;DHT22;6091;51.432;6.880;2023-03-18T01:41:16;23.80;32.10
12060;DHT22;6091;51.432;6.880;2023-03-18T01:43:44;23.80;32.10
12060;DHT22;6091;51.432;6.880;2023-03-18T01:46:41;23.80;32.20
12060;DHT22;6091;51.432;6.880;2023-03-18T01:49:38;23.90;32.30
12060;DHT22;6091;51.432;6.880;2023-03-18T01:52:23;23.80;32.30
12060;DHT22;6091;51.432;6.880;2023-03-18T01:55:03;23.80;32.20
12060;DHT22;6091;51.432;6.880;2023-03-18T01:57:34;23.80;32.20
12060;DHT22;6091;51.432;6.880;2023-03-18T02:00:05;23.80;32.20
12060;DHT22;6091;51.432;6.880;2023-03-18T02:02:39;23.80;32.10
12060;DHT22;6091;51.432;6.880;2023-03-18T02:05:11;23.80;32.10
12060;DHT22;6091;51.432;6.880;2023-03-18T02:07:43;23.80;32.20
12060;DHT22;6091;51.432;6.880;2023-03-18T02:13:08;23.80;32.20
12060;DHT22;6091;51.432;6.880;2023-03-18T02:16:05;23.80;32.20
12060;DHT22;6091;51.432;6.880;2023-03-18T02:18:43;23.80;32.30
12060;DHT22;6091;51.432;6.880;2023-03-18T02:21:36;23.70;32.10
12060;DHT22;6091;51.432;6.880;2023-03-18T02:27:24;23.80;32.30
12060;DHT22;6091;51.432;6.880;2023-03-18T02:29:59;23.80;32.30
12060;DHT22;6091;51.432;6.880;2023-03-18T02:32:30;23.70;32.20
12060;DHT22;6091;51.432;6.880;2023-03-18T02:35:03;23.70;32.20
12060;DHT22;6091;51.432;6.880;2023-03-18T02:37:34;23.70;32.30
12060;DHT22;6091;51.432;6.880;2023-03-18T02:42:42;23.70;32.30
12060;DHT22;6091;51.432;6.880;2023-03-18T02:45:29;23.70;32.20
12060;DHT22;6091;51.432;6.880;2023-03-18T02:48:07;23.70;32.30
12060;DHT22;6091;51.432;6.880;2023-03-18T02:50:39;23.70;32.20
12060;DHT22;6091;51.432;6.880;2023-03-18T02:53:11;23.70;32.30
12060;DHT22;6091;51.432;6.880;2023-03-18T02:55:39;23.70;32.30
12060;DHT22;6091;51.432;6.880;2023-03-18T02:58:07;23.70;32.30
12060;DHT22;6091;51.432;6.880;2023-03-18T03:00:35;23.60;32.30
12060;DHT22;6091;51.432;6.880;2023-03-18T03:03:03;23.60;32.30
12060;DHT22;6091;51.432;6.880;2023-03-18T03:05:33;23.60;32.30
12060;DHT22;6091;51.432;6.880;2023-03-18T03:08:01;23.60;32.30
12060;DHT22;6091;51.432;6.880;2023-03-18T03:10:28;23.60;32.30
12060;DHT22;6091;51.432;6.880;2023-03-18T03:12:56;23.60;32.30
12060;DHT22;6091;51.432;6.880;2023-03-18T03:15:24;23.60;32.40
12060;DHT22;6091;51.432;6.880;2023-03-18T03:17:52;23.60;32.30
12060;DHT22;6091;51.432;6.880;2023-03-18T03:20:20;23.60;32.40
12060;DHT22;6091;51.432;6.880;2023-03-18T03:22:47;23.60;32.40
12060;DHT22;6091;51.432;6.880;2023-03-18T03:25:15;23.60;32.40
12060;DHT22;6091;51.432;6.880;2023-03-18T03:27:42;23.50;32.40
12060;DHT22;6091;51.432;6.880;2023-03-18T03:30:11;23.60;32.40
12060;DHT22;6091;51.432;6.880;2023-03-18T03:32:40;23.60;32.40
12060;DHT22;6091;51.432;6.880;2023-03-18T03:35:07;23.60;32.40
12060;DHT22;6091;51.432;6.880;2023-03-18T03:37:37;23.60;32.40
12060;DHT22;6091;51.432;6.880;2023-03-18T03:40:05;23.60;32.40
12060;DHT22;6091;51.432;6.880;2023-03-18T03:42:33;23.50;32.40
12060;DHT22;6091;51.432;6.880;2023-03-18T03:45:02;23.50;32.40
12060;DHT22;6091;51.432;6.880;2023-03-18T03:47:31;23.50;32.50
12060;DHT22;6091;51.432;6.880;2023-03-18T03:49:59;23.50;32.40
12060;DHT22;6091;51.432;6.880;2023-03-18T03:52:26;23.50;32.50
12060;DHT22;6091;51.432;6.880;2023-03-18T03:54:54;23.50;32.50
12060;DHT22;6091;51.432;6.880;2023-03-18T03:57:22;23.50;32.60
12060;DHT22;6091;51.432;6.880;2023-03-18T03:59:50;23.50;32.50
12060;DHT22;6091;51.432;6.880;2023-03-18T04:02:18;23.40;32.40
12060;DHT22;6091;51.432;6.880;2023-03-18T04:04:46;23.50;32.50
12060;DHT22;6091;51.432;6.880;2023-03-18T04:07:13;23.20;32.30
12060;DHT22;6091;51.432;6.880;2023-03-18T04:09:44;23.40;32.30
12060;DHT22;6091;51.432;6.880;2023-03-18T04:12:12;23.50;32.60
12060;DHT22;6091;51.432;6.880;2023-03-18T04:14:40;23.50;32.50
12060;DHT22;6091;51.432;6.880;2023-03-18T04:17:09;23.40;32.50
12060;DHT22;6091;51.432;6.880;2023-03-18T04:19:37;23.40;32.50
12060;DHT22;6091;51.432;6.880;2023-03-18T04:22:05;23.40;33.10
12060;DHT22;6091;51.432;6.880;2023-03-18T04:24:32;23.40;33.10
12060;DHT22;6091;51.432;6.880;2023-03-18T04:26:59;23.40;32.50
12060;DHT22;6091;51.432;6.880;2023-03-18T04:29:26;23.40;32.50
12060;DHT22;6091;51.432;6.880;2023-03-18T04:31:54;23.40;32.50
12060;DHT22;6091;51.432;6.880;2023-03-18T04:34:22;23.40;32.50
12060;DHT22;6091;51.432;6.880;2023-03-18T04:36:50;23.40;32.60
12060;DHT22;6091;51.432;6.880;2023-03-18T04:39:17;23.40;32.50
12060;DHT22;6091;51.432;6.880;2023-03-18T04:41:44;23.40;32.60
12060;DHT22;6091;51.432;6.880;2023-03-18T04:44:12;23.40;32.70
12060;DHT22;6091;51.432;6.880;2023-03-18T04:46:40;23.40;32.60
12060;DHT22;6091;51.432;6.880;2023-03-18T04:49:07;23.40;33.30
12060;DHT22;6091;51.432;6.880;2023-03-18T04:51:34;23.40;32.60
12060;DHT22;6091;51.432;6.880;2023-03-18T04:54:02;23.40;32.60
12060;DHT22;6091;51.432;6.880;2023-03-18T04:56:29;23.40;32.50
12060;DHT22;6091;51.432;6.880;2023-03-18T04:58:57;23.40;32.60
12060;DHT22;6091;51.432;6.880;2023-03-18T05:01:24;23.40;32.60
12060;DHT22;6091;51.432;6.880;2023-03-18T05:03:51;23.40;32.60
12060;DHT22;6091;51.432;6.880;2023-03-18T05:06:24;23.40;32.70
12060;DHT22;6091;51.432;6.880;2023-03-18T05:08:53;23.30;32.60
12060;DHT22;6091;51.432;6.880;2023-03-18T05:11:20;23.40;32.60
12060;DHT22;6091;51.432;6.880;2023-03-18T05:13:48;23.30;33.50
12060;DHT22;6091;51.432;6.880;2023-03-18T05:16:15;23.30;32.60
12060;DHT22;6091;51.432;6.880;2023-03-18T05:18:43;23.30;32.60
12060;DHT22;6091;51.432;6.880;2023-03-18T05:21:11;23.30;32.60
12060;DHT22;6091;51.432;6.880;2023-03-18T05:23:38;23.30;32.50
12060;DHT22;6091;51.432;6.880;2023-03-18T05:26:06;23.30;32.60
12060;DHT22;6091;51.432;6.880;2023-03-18T05:28:33;23.30;32.60
12060;DHT22;6091;51.432;6.880;2023-03-18T05:31:00;23.30;32.60
12060;DHT22;6091;51.432;6.880;2023-03-18T05:33:28;23.30;32.60
12060;DHT22;6091;51.432;6.880;2023-03-18T05:35:55;23.30;32.60
12060;DHT22;6091;51.432;6.880;2023-03-18T05:38:23;23.30;32.70
12060;DHT22;6091;51.432;6.880;2023-03-18T05:40:51;23.30;32.70
12060;DHT22;6091;51.432;6.880;2023-03-18T05:43:20;23.20;32.50
12060;DHT22;6091;51.432;6.880;2023-03-18T05:45:48;23.30;32.60
12060;DHT22;6091;51.432;6.880;2023-03-18T05:48:16;23.30;32.70
12060;DHT22;6091;51.432;6.880;2023-03-18T05:50:43;23.30;32.70
12060;DHT22;6091;51.432;6.880;2023-03-18T05:53:11;23.30;32.70
12060;DHT22;6091;51.432;6.880;2023-03-18T05:55:39;23.30;32.70
12060;DHT22;6091;51.432;6.880;2023-03-18T05:58:06;23.30;32.80
12060;DHT22;6091;51.432;6.880;2023-03-18T06:00:34;23.30;32.80
12060;DHT22;6091;51.432;6.880;2023-03-18T06:03:05;23.30;32.70
12060;DHT22;6091;51.432;6.880;2023-03-18T06:05:32;23.30;33.00
12060;DHT22;6091;51.432;6.880;2023-03-18T06:08:01;23.30;32.70
12060;DHT22;6091;51.432;6.880;2023-03-18T06:10:28;23.30;32.70
12060;DHT22;6091;51.432;6.880;2023-03-18T06:12:56;23.30;32.80
12060;DHT22;6091;51.432;6.880;2023-03-18T06:15:23;23.30;32.80
12060;DHT22;6091;51.432;6.880;2023-03-18T06:17:51;23.30;33.10
12060;DHT22;6091;51.432;6.880;2023-03-18T06:20:19;23.30;32.80
12060;DHT22;6091;51.432;6.880;2023-03-18T06:22:46;23.30;32.80
12060;DHT22;6091;51.432;6.880;2023-03-18T06:25:19;23.30;32.80
12060;DHT22;6091;51.432;6.880;2023-03-18T06:27:48;23.20;32.70
12060;DHT22;6091;51.432;6.880;2023-03-18T06:30:16;23.30;32.80
12060;DHT22;6091;51.432;6.880;2023-03-18T06:32:47;23.30;32.80
12060;DHT22;6091;51.432;6.880;2023-03-18T06:35:15;23.30;32.80
12060;DHT22;6091;51.432;6.880;2023-03-18T06:37:42;23.30;32.70
12060;DHT22;6091;51.432;6.880;2023-03-18T06:40:10;23.30;32.70
12060;DHT22;6091;51.432;6.880;2023-03-18T06:42:41;23.30;32.80
12060;DHT22;6091;51.432;6.880;2023-03-18T06:45:08;23.10;32.70
12060;DHT22;6091;51.432;6.880;2023-03-18T06:47:36;23.30;32.80
12060;DHT22;6091;51.432;6.880;2023-03-18T06:50:04;23.30;32.80
12060;DHT22;6091;51.432;6.880;2023-03-18T06:52:32;23.30;32.80
12060;DHT22;6091;51.432;6.880;2023-03-18T06:54:59;23.30;33.20
12060;DHT22;6091;51.432;6.880;2023-03-18T06:57:26;23.30;33.00
12060;DHT22;6091;51.432;6.880;2023-03-18T06:59:54;23.30;32.90
12060;DHT22;6091;51.432;6.880;2023-03-18T07:02:23;23.30;32.80
12060;DHT22;6091;51.432;6.880;2023-03-18T07:04:50;23.30;32.90
12060;DHT22;6091;51.432;6.880;2023-03-18T07:07:18;23.30;32.80
12060;DHT22;6091;51.432;6.880;2023-03-18T07:09:45;23.30;32.80
12060;DHT22;6091;51.432;6.880;2023-03-18T07:12:13;23.30;32.90
12060;DHT22;6091;51.432;6.880;2023-03-18T07:14:40;23.30;32.80
12060;DHT22;6091;51.432;6.880;2023-03-18T07:17:08;23.30;32.80
12060;DHT22;6091;51.432;6.880;2023-03-18T07:19:36;23.30;32.90
12060;DHT22;6091;51.432;6.880;2023-03-18T07:22:03;23.40;33.00
12060;DHT22;6091;51.432;6.880;2023-03-18T07:24:31;23.40;32.90
12060;DHT22;6091;51.432;6.880;2023-03-18T07:26:58;23.30;32.90
12060;DHT22;6091;51.432;6.880;2023-03-18T07:29:25;23.40;33.00
12060;DHT22;6091;51.432;6.880;2023-03-18T07:31:53;23.40;33.00
12060;DHT22;6091;51.432;6.880;2023-03-18T07:34:20;23.40;33.00
12060;DHT22;6091;51.432;6.880;2023-03-18T07:36:48;23.40;32.90
12060;DHT22;6091;51.432;6.880;2023-03-18T07:39:15;23.40;32.90
12060;DHT22;6091;51.432;6.880;2023-03-18T07:41:43;23.40;32.90
12060;DHT22;6091;51.432;6.880;2023-03-18T07:44:10;23.50;32.90
12060;DHT22;6091;51.432;6.880;2023-03-18T07:46:37;23.40;32.80
12060;DHT22;6091;51.432;6.880;2023-03-18T07:49:07;23.50;33.00
12060;DHT22;6091;51.432;6.880;2023-03-18T07:51:35;23.40;33.30
12060;DHT22;6091;51.432;6.880;2023-03-18T07:54:05;23.50;33.00
12060;DHT22;6091;51.432;6.880;2023-03-18T07:56:32;23.50;33.00
12060;DHT22;6091;51.432;6.880;2023-03-18T07:59:00;23.50;32.90
12060;DHT22;6091;51.432;6.880;2023-03-18T08:01:27;23.50;33.00
12060;DHT22;6091;51.432;6.880;2023-03-18T08:03:57;23.50;33.10
12060;DHT22;6091;51.432;6.880;2023-03-18T08:06:25;23.50;33.00
12060;DHT22;6091;51.432;6.880;2023-03-18T08:08:53;23.50;33.00
12060;DHT22;6091;51.432;6.880;2023-03-18T08:11:21;23.50;32.90
12060;DHT22;6091;51.432;6.880;2023-03-18T08:13:48;23.60;33.00
12060;DHT22;6091;51.432;6.880;2023-03-18T08:16:15;23.60;33.00
12060;DHT22;6091;51.432;6.880;2023-03-18T08:18:44;23.60;32.90
12060;DHT22;6091;51.432;6.880;2023-03-18T08:21:11;23.60;33.00
12060;DHT22;6091;51.432;6.880;2023-03-18T08:23:39;23.60;33.00
12060;DHT22;6091;51.432;6.880;2023-03-18T08:26:10;23.60;33.00
12060;DHT22;6091;51.432;6.880;2023-03-18T08:28:37;23.60;33.00
12060;DHT22;6091;51.432;6.880;2023-03-18T08:31:05;23.70;33.00
12060;DHT22;6091;51.432;6.880;2023-03-18T08:33:32;23.70;33.00
12060;DHT22;6091;51.432;6.880;2023-03-18T08:35:59;23.70;33.00
12060;DHT22;6091;51.432;6.880;2023-03-18T08:38:27;23.70;32.90
12060;DHT22;6091;51.432;6.880;2023-03-18T08:40:54;23.70;33.00
12060;DHT22;6091;51.432;6.880;2023-03-18T08:43:22;23.70;32.90
12060;DHT22;6091;51.432;6.880;2023-03-18T08:45:52;23.70;32.90
12060;DHT22;6091;51.432;6.880;2023-03-18T08:48:24;23.80;33.00
12060;DHT22;6091;51.432;6.880;2023-03-18T08:50:52;23.80;33.30
12060;DHT22;6091;51.432;6.880;2023-03-18T08:53:20;23.80;33.00
12060;DHT22;6091;51.432;6.880;2023-03-18T08:55:47;23.80;33.60
12060;DHT22;6091;51.432;6.880;2023-03-18T08:58:15;23.80;33.00
12060;DHT22;6091;51.432;6.880;2023-03-18T09:00:44;23.90;33.10
12060;DHT22;6091;51.432;6.880;2023-03-18T09:03:12;23.90;33.00
12060;DHT22;6091;51.432;6.880;2023-03-18T09:05:41;23.90;33.00
12060;DHT22;6091;51.432;6.880;2023-03-18T09:08:09;23.90;33.00
12060;DHT22;6091;51.432;6.880;2023-03-18T09:10:36;23.90;33.00
12060;DHT22;6091;51.432;6.880;2023-03-18T09:13:07;23.90;32.90
12060;DHT22;6091;51.432;6.880;2023-03-18T09:15:36;24.00;33.00
12060;DHT22;6091;51.432;6.880;2023-03-18T09:18:04;24.00;33.30
12060;DHT22;6091;51.432;6.880;2023-03-18T09:20:39;24.00;33.00
12060;DHT22;6091;51.432;6.880;2023-03-18T09:23:09;23.90;33.00
12060;DHT22;6091;51.432;6.880;2023-03-18T09:25:39;24.00;33.00
12060;DHT22;6091;51.432;6.880;2023-03-18T09:28:09;24.00;33.00
12060;DHT22;6091;51.432;6.880;2023-03-18T09:30:37;25.20;34.00
12060;DHT22;6091;51.432;6.880;2023-03-18T09:33:08;24.00;33.00
12060;DHT22;6091;51.432;6.880;2023-03-18T09:35:38;24.00;33.20
12060;DHT22;6091;51.432;6.880;2023-03-18T09:38:06;24.10;33.30
12060;DHT22;6091;51.432;6.880;2023-03-18T09:40:36;24.10;33.50
12060;DHT22;6091;51.432;6.880;2023-03-18T09:52:34;24.20;33.60
12060;DHT22;6091;51.432;6.880;2023-03-18T09:58:02;24.30;33.50
12060;DHT22;6091;51.432;6.880;2023-03-18T10:00:41;24.40;33.60
12060;DHT22;6091;51.432;6.880;2023-03-18T10:03:24;24.40;33.70
12060;DHT22;6091;51.432;6.880;2023-03-18T10:06:22;24.40;33.80
12060;DHT22;6091;51.432;6.880;2023-03-18T10:09:17;24.40;33.90
12060;DHT22;6091;51.432;6.880;2023-03-18T10:11:54;24.50;34.10
12060;DHT22;6091;51.432;6.880;2023-03-18T10:14:40;24.50;34.00
12060;DHT22;6091;51.432;6.880;2023-03-18T10:21:01;24.60;34.60
12060;DHT22;6091;51.432;6.880;2023-03-18T10:23:49;24.70;34.70
12060;DHT22;6091;51.432;6.880;2023-03-18T10:26:51;24.70;35.00
12060;DHT22;6091;51.432;6.880;2023-03-18T10:35:49;25.00;35.10
12060;DHT22;6091;51.432;6.880;2023-03-18T10:38:36;25.00;35.10
12060;DHT22;6091;51.432;6.880;2023-03-18T10:41:29;25.10;34.90
12060;DHT22;6091;51.432;6.880;2023-03-18T10:44:23;25.10;35.00
12060;DHT22;6091;51.432;6.880;2023-03-18T10:47:13;25.20;34.90
12060;DHT22;6091;51.432;6.880;2023-03-18T10:49:47;25.40;34.70
12060;DHT22;6091;51.432;6.880;2023-03-18T10:55:23;25.60;34.50
12060;DHT22;6091;51.432;6.880;2023-03-18T10:57:57;25.70;34.40
12060;DHT22;6091;51.432;6.880;2023-03-18T11:00:26;25.80;34.40
12060;DHT22;6091;51.432;6.880;2023-03-18T11:02:55;25.80;35.00
12060;DHT22;6091;51.432;6.880;2023-03-18T11:05:35;25.90;34.30
12060;DHT22;6091;51.432;6.880;2023-03-18T11:08:06;26.10;34.10
12060;DHT22;6091;51.432;6.880;2023-03-18T11:10:54;26.20;34.20
12060;DHT22;6091;51.432;6.880;2023-03-18T11:13:21;26.30;34.20
12060;DHT22;6091;51.432;6.880;2023-03-18T11:15:51;26.50;34.10
12060;DHT22;6091;51.432;6.880;2023-03-18T11:18:24;26.50;34.00
12060;DHT22;6091;51.432;6.880;2023-03-18T11:20:57;26.70;34.10
12060;DHT22;6091;51.432;6.880;2023-03-18T11:23:37;26.80;33.90
12060;DHT22;6091;51.432;6.880;2023-03-18T11:26:26;27.00;33.90
12060;DHT22;6091;51.432;6.880;2023-03-18T11:29:04;27.10;33.70
12060;DHT22;6091;51.432;6.880;2023-03-18T11:31:54;27.20;33.60
12060;DHT22;6091;51.432;6.880;2023-03-18T11:34:32;27.40;33.40
12060;DHT22;6091;51.432;6.880;2023-03-18T11:37:05;27.50;33.40
12060;DHT22;6091;51.432;6.880;2023-03-18T11:39:39;27.60;33.30
12060;DHT22;6091;51.432;6.880;2023-03-18T11:42:20;27.60;33.30
12060;DHT22;6091;51.432;6.880;2023-03-18T11:44:48;27.70;33.00
12060;DHT22;6091;51.432;6.880;2023-03-18T11:49:53;27.80;33.50
12060;DHT22;6091;51.432;6.880;2023-03-18T11:52:33;27.90;33.40
12060;DHT22;6091;51.432;6.880;2023-03-18T11:55:18;28.00;33.20
12060;DHT22;6091;51.432;6.880;2023-03-18T11:58:23;28.10;33.50
12060;DHT22;6091;51.432;6.880;2023-03-18T12:17:12;29.00;33.20
12060;DHT22;6091;51.432;6.880;2023-03-18T12:20:18;29.10;33.00
12060;DHT22;6091;51.432;6.880;2023-03-18T12:29:47;29.80;32.60
12060;DHT22;6091;51.432;6.880;2023-03-18T12:32:39;29.80;32.10
12060;DHT22;6091;51.432;6.880;2023-03-18T12:40:57;29.60;31.60
12060;DHT22;6091;51.432;6.880;2023-03-18T12:44:00;29.50;31.60
12060;DHT22;6091;51.432;6.880;2023-03-18T12:47:07;29.30;31.70
12060;DHT22;6091;51.432;6.880;2023-03-18T12:50:18;29.30;31.90
12060;DHT22;6091;51.432;6.880;2023-03-18T12:52:59;29.20;31.90
12060;DHT22;6091;51.432;6.880;2023-03-18T12:55:44;29.10;31.80
12060;DHT22;6091;51.432;6.880;2023-03-18T12:58:26;29.00;31.70
12060;DHT22;6091;51.432;6.880;2023-03-18T13:01:07;28.90;31.80
12060;DHT22;6091;51.432;6.880;2023-03-18T13:03:55;28.90;32.10
12060;DHT22;6091;51.432;6.880;2023-03-18T13:06:41;29.10;32.40
12060;DHT22;6091;51.432;6.880;2023-03-18T13:09:35;29.10;32.50
12060;DHT22;6091;51.432;6.880;2023-03-18T13:12:40;29.20;32.10
12060;DHT22;6091;51.432;6.880;2023-03-18T13:15:34;29.30;31.90
12060;DHT22;6091;51.432;6.880;2023-03-18T13:18:27;29.40;31.60
12060;DHT22;6091;51.432;6.880;2023-03-18T13:21:00;29.40;31.70
12060;DHT22;6091;51.432;6.880;2023-03-18T13:30:20;28.90;31.20
12060;DHT22;6091;51.432;6.880;2023-03-18T13:36:22;28.60;31.30
12060;DHT22;6091;51.432;6.880;2023-03-18T13:42:07;28.30;31.30
12060;DHT22;6091;51.432;6.880;2023-03-18T13:48:05;28.00;31.40
12060;DHT22;6091;51.432;6.880;2023-03-18T13:50:51;27.90;31.40
12060;DHT22;6091;51.432;6.880;2023-03-18T13:53:33;27.80;31.60
12060;DHT22;6091;51.432;6.880;2023-03-18T13:59:43;27.60;31.70
12060;DHT22;6091;51.432;6.880;2023-03-18T14:07:58;27.30;31.80
12060;DHT22;6091;51.432;6.880;2023-03-18T14:10:31;27.20;31.70
12060;DHT22;6091;51.432;6.880;2023-03-18T14:13:24;27.10;31.80
12060;DHT22;6091;51.432;6.880;2023-03-18T14:15:55;27.00;31.90
12060;DHT22;6091;51.432;6.880;2023-03-18T14:18:25;26.90;31.80
12060;DHT22;6091;51.432;6.880;2023-03-18T14:20:58;26.80;31.80
12060;DHT22;6091;51.432;6.880;2023-03-18T14:23:37;26.80;31.90
12060;DHT22;6091;51.432;6.880;2023-03-18T14:26:22;26.70;32.10
12060;DHT22;6091;51.432;6.880;2023-03-18T14:28:55;26.70;32.80
12060;DHT22;6091;51.432;6.880;2023-03-18T14:45:18;26.60;32.80
12060;DHT22;6091;51.432;6.880;2023-03-18T14:47:54;26.80;33.00
12060;DHT22;6091;51.432;6.880;2023-03-18T14:50:34;26.90;33.00
12060;DHT22;6091;51.432;6.880;2023-03-18T14:55:56;27.10;32.50
12060;DHT22;6091;51.432;6.880;2023-03-18T14:58:25;27.20;32.40
12060;DHT22;6091;51.432;6.880;2023-03-18T15:01:00;27.20;32.30
12060;DHT22;6091;51.432;6.880;2023-03-18T15:03:32;27.20;32.20
12060;DHT22;6091;51.432;6.880;2023-03-18T15:06:02;27.20;32.20
12060;DHT22;6091;51.432;6.880;2023-03-18T15:08:37;27.20;32.20
12060;DHT22;6091;51.432;6.880;2023-03-18T15:11:18;27.20;32.20
12060;DHT22;6091;51.432;6.880;2023-03-18T15:13:48;27.10;32.10
12060;DHT22;6091;51.432;6.880;2023-03-18T15:16:23;27.10;32.10
12060;DHT22;6091;51.432;6.880;2023-03-18T15:18:52;27.00;32.40
12060;DHT22;6091;51.432;6.880;2023-03-18T15:21:28;26.90;32.00
12060;DHT22;6091;51.432;6.880;2023-03-18T15:24:03;27.00;32.20
12060;DHT22;6091;51.432;6.880;2023-03-18T15:26:37;26.90;32.10
12060;DHT22;6091;51.432;6.880;2023-03-18T15:29:26;26.90;32.10
12060;DHT22;6091;51.432;6.880;2023-03-18T15:34:46;26.80;32.30
12060;DHT22;6091;51.432;6.880;2023-03-18T15:37:35;26.70;32.20
12060;DHT22;6091;51.432;6.880;2023-03-18T15:40:31;26.80;32.30
12060;DHT22;6091;51.432;6.880;2023-03-18T15:45:45;26.50;32.80
12060;DHT22;6091;51.432;6.880;2023-03-18T15:48:29;26.50;32.80
12060;DHT22;6091;51.432;6.880;2023-03-18T15:51:05;26.40;32.70
12060;DHT22;6091;51.432;6.880;2023-03-18T15:53:41;26.50;32.60
12060;DHT22;6091;51.432;6.880;2023-03-18T15:56:15;26.40;32.70
12060;DHT22;6091;51.432;6.880;2023-03-18T15:59:03;26.40;32.80
12060;DHT22;6091;51.432;6.880;2023-03-18T16:01:35;26.30;32.90
12060;DHT22;6091;51.432;6.880;2023-03-18T16:04:07;26.30;32.70
12060;DHT22;6091;51.432;6.880;2023-03-18T16:06:36;26.30;32.80
12060;DHT22;6091;51.432;6.880;2023-03-18T16:11:44;26.20;33.00
12060;DHT22;6091;51.432;6.880;2023-03-18T16:14:17;26.20;32.90
12060;DHT22;6091;51.432;6.880;2023-03-18T16:16:47;26.20;33.00
12060;DHT22;6091;51.432;6.880;2023-03-18T16:19:26;26.20;33.00
12060;DHT22;6091;51.432;6.880;2023-03-18T16:21:56;26.20;33.30
12060;DHT22;6091;51.432;6.880;2023-03-18T16:24:25;26.10;33.20
12060;DHT22;6091;51.432;6.880;2023-03-18T16:26:54;26.10;33.30
12060;DHT22;6091;51.432;6.880;2023-03-18T16:29:33;26.00;33.30
12060;DHT22;6091;51.432;6.880;2023-03-18T16:32:04;26.00;33.60
12060;DHT22;6091;51.432;6.880;2023-03-18T16:34:32;26.00;33.40
12060;DHT22;6091;51.432;6.880;2023-03-18T16:37:00;26.00;33.50
12060;DHT22;6091;51.432;6.880;2023-03-18T16:39:32;25.90;33.50
12060;DHT22;6091;51.432;6.880;2023-03-18T16:42:02;25.90;33.90
12060;DHT22;6091;51.432;6.880;2023-03-18T16:44:35;25.80;33.50
12060;DHT22;6091;51.432;6.880;2023-03-18T16:47:04;25.80;33.50
12060;DHT22;6091;51.432;6.880;2023-03-18T16:49:33;25.80;33.70
12060;DHT22;6091;51.432;6.880;2023-03-18T16:52:03;25.80;33.60
12060;DHT22;6091;51.432;6.880;2023-03-18T16:54:32;25.70;33.60
12060;DHT22;6091;51.432;6.880;2023-03-18T16:57:04;25.70;33.60
12060;DHT22;6091;51.432;6.880;2023-03-18T16:59:34;25.60;33.60
12060;DHT22;6091;51.432;6.880;2023-03-18T17:02:05;25.60;33.60
12060;DHT22;6091;51.432;6.880;2023-03-18T17:04:52;25.60;33.60
12060;DHT22;6091;51.432;6.880;2023-03-18T17:07:19;25.60;33.50
12060;DHT22;6091;51.432;6.880;2023-03-18T17:09:47;25.50;33.60
12060;DHT22;6091;51.432;6.880;2023-03-18T17:12:18;25.40;33.50
12060;DHT22;6091;51.432;6.880;2023-03-18T17:14:52;25.50;33.70
12060;DHT22;6091;51.432;6.880;2023-03-18T17:17:31;25.40;33.70
12060;DHT22;6091;51.432;6.880;2023-03-18T17:20:32;25.30;33.80
12060;DHT22;6091;51.432;6.880;2023-03-18T17:23:03;25.40;33.80
12060;DHT22;6091;51.432;6.880;2023-03-18T17:25:31;25.30;33.60
12060;DHT22;6091;51.432;6.880;2023-03-18T17:28:12;25.30;33.60
12060;DHT22;6091;51.432;6.880;2023-03-18T17:30:43;25.30;33.90
12060;DHT22;6091;51.432;6.880;2023-03-18T17:33:25;25.20;33.60
12060;DHT22;6091;51.432;6.880;2023-03-18T17:35:54;25.20;33.90
12060;DHT22;6091;51.432;6.880;2023-03-18T17:38:22;25.10;33.60
12060;DHT22;6091;51.432;6.880;2023-03-18T17:40:50;25.10;33.70
12060;DHT22;6091;51.432;6.880;2023-03-18T17:43:32;24.90;33.60
12060;DHT22;6091;51.432;6.880;2023-03-18T17:46:05;24.90;33.80
12060;DHT22;6091;51.432;6.880;2023-03-18T17:48:35;25.00;33.80
12060;DHT22;6091;51.432;6.880;2023-03-18T17:51:06;24.90;33.80
12060;DHT22;6091;51.432;6.880;2023-03-18T17:53:54;24.90;33.80
12060;DHT22;6091;51.432;6.880;2023-03-18T17:56:24;24.90;33.90
12060;DHT22;6091;51.432;6.880;2023-03-18T17:58:53;24.90;33.80
12060;DHT22;6091;51.432;6.880;2023-03-18T18:01:26;24.90;33.80
12060;DHT22;6091;51.432;6.880;2023-03-18T18:03:57;24.80;33.90
12060;DHT22;6091;51.432;6.880;2023-03-18T18:06:27;24.80;33.80
12060;DHT22;6091;51.432;6.880;2023-03-18T18:08:56;24.70;33.80
12060;DHT22;6091;51.432;6.880;2023-03-18T18:14:14;24.70;34.50
12060;DHT22;6091;51.432;6.880;2023-03-18T18:16:48;24.70;34.10
12060;DHT22;6091;51.432;6.880;2023-03-18T18:19:16;24.70;33.90